Pagina principale
METAR-TAF:

METAR-TAF

Aeroporti :

Apalachicola, Florida, Stati Uniti

latitudine: 29-43-37N, longitudine: 085-01-29W, altezza: 6 m

Osservazione

Il bollettino è stato emesso 49 minuti fa, alle 08:53 UTC
Vento calmo
Temperature 20°C
Umidità 88%
Pressione 1016 hPa
Visibilità: 14.5 km
Cielo sereno

METAR: KAAF 200853Z AUTO 00000KT 9SM CLR 20/18 A3001 RMK AO2 SLP161 T02000183 52001

Ora: 05:42 (09:42 UTC)


TAF: mancante

Osservazioni e previsioni meteorologiche di più di 4000 aeroporti (messaggi METAR e TAF).

Le stazioni disponibili sono rappresentate dai dischi gialli e rossi sulla carta.

Puntare il mouse per vedere il nome della stazione.

Clicca sopra per visualizzare le osservazioni e previsioni meteorologiche.

Per cambiare la mappa : fare clic sui pulsanti verdi con una croce nera per ingrandire, il pulsante verde con un trattino per diminuire, o sulla freccia verde per le mappe adiacenti.


METAR-TAF: